General Abelardo L. Rodríguez International Airport
MMTJ : now visible

Airfield :











YOU CAN JOIN US ON...

 
LOGIN :

Register | Disclaimer

   EN    FR    IT 

 









Legend :    VFR   Marginal VFR   IFR   Intensive IFR   Very Intensive IFR
Visi :
Ceiling :
>= 8 km
>= 3000ft
5 to 8 km
1000 to 3000 ft
1500m to 5 km
500 to 1000 ft
800 to 1500m
200 to 500 ft
< 800m
< 200 ft
Symbols :   Thunderstorms  Fog  Heavy snow  Heavy precipitations  Wind > 20 kt






- Airport Elevation : 489 ft
- IATA code : TIJ


MMTJ - General Abelardo L. Rodríguez International

CURRENT METAR :
  • 221357Z RTD 20005KT 5SM SCT010 OVC020 12/11 A2999 RMK 8/7// HZY RTS

EXPIRED METARs :
  • 221243Z 21005KT 5SM OVC020 12/09 A2997 RMK 8/7// HZY MSGTX MMMX

TAF TAF MMTJ
Valid from the 22 at 12:00 until the 23 at 18:00 UTC


221112Z 2212/2318 00000KT 6SM HZ OVC020 TX17/2221Z TN11/2212Z
TEMPO 2212/2216 5SM DZ OVC015
FM222000 33010KT 6SM HZ BKN020
FM230400 33005KT 6SM HZ BKN015
TEMPO 2310/2314 OVC010
MMFR FIR / North America



MET'MAP, your aeronautical weather chart ! - Copyright ORBIFLY December 2007 - Disclaimer

ORBIFLY MET'MAP TEAM :

Programming & Development : Alexandra Zaïnal
Concept & original design : Baudouin d'Aumeries
Assistance for programming : Marc-Olivier Méhu
Technical & hardware support : Manuel Goepfert

Contact : metmap@orbifly.com




SOURCES & CREDITS :

   NOAA       Earth
Advisory